createdAt,value
2023-04-27T00:00:39.497Z,75.08
2023-04-27T00:01:39.533Z,69.26
2023-04-27T00:02:39.567Z,70.20
2023-04-27T00:03:39.605Z,70.86
2023-04-27T00:04:39.690Z,69.51
2023-04-27T00:05:39.770Z,66.50
2023-04-27T00:06:39.458Z,67.34
2023-04-27T00:07:39.442Z,64.94
2023-04-27T00:08:39.456Z,66.17
2023-04-27T00:09:39.416Z,64.35
2023-04-27T00:10:39.418Z,65.64
2023-04-27T00:11:39.410Z,65.02
2023-04-27T00:12:39.424Z,63.86
2023-04-27T00:13:39.404Z,64.42
2023-04-27T00:14:39.398Z,68.13
2023-04-27T00:15:39.563Z,62.71
2023-04-27T00:16:39.424Z,63.99
2023-04-27T00:17:39.401Z,65.94
2023-04-27T00:18:39.368Z,69.14
2023-04-27T00:19:39.354Z,65.66
2023-04-27T00:20:39.340Z,66.96
2023-04-27T00:21:39.349Z,67.37
2023-04-27T00:22:39.351Z,61.15
2023-04-27T00:23:39.325Z,60.35
2023-04-27T00:24:39.338Z,60.24
2023-04-27T00:25:39.311Z,61.51
2023-04-27T00:26:39.334Z,63.09
2023-04-27T00:27:39.302Z,66.50
2023-04-27T00:28:39.302Z,67.97
2023-04-27T00:29:39.294Z,65.51
2023-04-27T00:30:39.285Z,65.98
2023-04-27T00:31:39.341Z,63.36
2023-04-27T00:32:39.372Z,60.64
2023-04-27T00:33:39.261Z,58.63
2023-04-27T00:34:39.261Z,61.16
2023-04-27T00:35:39.275Z,61.94
2023-04-27T00:36:39.224Z,64.96
2023-04-27T00:37:39.236Z,65.12
2023-04-27T00:38:39.217Z,66.28
2023-04-27T00:39:39.209Z,66.58
2023-04-27T00:40:39.192Z,63.33
2023-04-27T00:41:39.184Z,67.54
2023-04-27T00:42:39.175Z,66.05
2023-04-27T00:43:39.188Z,65.45
2023-04-27T00:44:39.907Z,62.90
2023-04-27T00:45:39.192Z,64.59
2023-04-27T00:46:39.146Z,67.08
2023-04-27T00:47:39.165Z,65.53
2023-04-27T00:48:39.120Z,64.57
2023-04-27T00:49:39.127Z,63.12
2023-04-27T00:50:39.126Z,64.24
2023-04-27T00:51:39.133Z,65.33
2023-04-27T00:52:39.106Z,66.99
2023-04-27T00:53:39.137Z,65.46
2023-04-27T00:54:39.094Z,63.61
2023-04-27T00:55:39.132Z,65.89
2023-04-27T00:56:39.077Z,60.73
2023-04-27T00:57:39.142Z,63.34
2023-04-27T00:58:39.072Z,66.07
2023-04-27T00:59:39.102Z,64.33
2023-04-27T01:00:39.071Z,63.11
2023-04-27T01:01:39.241Z,64.33
2023-04-27T01:02:39.322Z,65.34
2023-04-27T01:03:39.246Z,63.84
2023-04-27T01:04:39.111Z,61.15
2023-04-27T01:05:39.048Z,61.37
2023-04-27T01:06:39.005Z,61.89
2023-04-27T01:07:39.024Z,64.18
2023-04-27T01:08:38.999Z,62.10
2023-04-27T01:09:38.994Z,61.78
2023-04-27T01:10:38.990Z,61.00
2023-04-27T01:11:38.994Z,61.53
2023-04-27T01:12:38.981Z,60.48
2023-04-27T01:13:38.969Z,59.80
2023-04-27T01:14:38.951Z,62.24
2023-04-27T01:15:38.965Z,60.05
2023-04-27T01:16:39.009Z,63.43
2023-04-27T01:17:38.976Z,62.65
2023-04-27T01:18:38.917Z,58.55
2023-04-27T01:19:38.908Z,60.89
2023-04-27T01:20:39.130Z,56.12
2023-04-27T01:21:38.910Z,55.26
2023-04-27T01:22:38.905Z,58.29
2023-04-27T01:23:38.901Z,57.62
2023-04-27T01:24:38.884Z,58.31
2023-04-27T01:25:38.899Z,55.25
2023-04-27T01:26:38.884Z,56.05
2023-04-27T01:27:38.860Z,57.23
2023-04-27T01:28:38.866Z,58.88
2023-04-27T01:29:38.858Z,57.75
2023-04-27T01:30:38.843Z,56.79
2023-04-27T01:31:38.988Z,56.39
2023-04-27T01:32:38.920Z,56.94
2023-04-27T01:33:38.805Z,55.70
2023-04-27T01:34:38.823Z,55.60
2023-04-27T01:35:38.811Z,54.97
2023-04-27T01:36:38.824Z,56.13
2023-04-27T01:37:38.811Z,57.78
2023-04-27T01:38:38.775Z,55.48
2023-04-27T01:39:38.778Z,55.27
2023-04-27T01:40:38.796Z,57.43
2023-04-27T01:41:38.789Z,57.40
2023-04-27T01:42:38.764Z,58.38
2023-04-27T01:43:38.777Z,59.35
2023-04-27T01:44:38.744Z,58.87
2023-04-27T01:45:38.728Z,58.37
2023-04-27T01:46:38.822Z,58.45
2023-04-27T01:47:38.753Z,57.75
2023-04-27T01:48:38.700Z,57.74
2023-04-27T01:49:38.716Z,58.90
2023-04-27T01:50:38.714Z,60.19
2023-04-27T01:51:38.702Z,59.99
2023-04-27T01:52:38.700Z,56.79
2023-04-27T01:53:38.678Z,58.07
2023-04-27T01:54:38.672Z,56.63
2023-04-27T01:55:38.690Z,56.08
2023-04-27T01:56:38.642Z,58.07
2023-04-27T01:57:38.631Z,56.75
2023-04-27T01:58:38.637Z,55.44
2023-04-27T01:59:38.622Z,56.69
2023-04-27T02:00:38.610Z,57.36
2023-04-27T02:01:38.699Z,56.44
2023-04-27T02:02:38.724Z,55.81
2023-04-27T02:03:38.759Z,55.81
2023-04-27T02:04:38.796Z,56.13
2023-04-27T02:05:38.703Z,54.88
2023-04-27T02:06:38.591Z,52.50
2023-04-27T02:07:38.605Z,52.32
2023-04-27T02:08:38.586Z,55.26
2023-04-27T02:09:38.581Z,54.25
2023-04-27T02:10:38.571Z,51.08
2023-04-27T02:11:38.591Z,53.56
2023-04-27T02:12:38.528Z,52.98
2023-04-27T02:13:38.547Z,53.82
2023-04-27T02:14:38.545Z,54.33
2023-04-27T02:15:38.522Z,55.32
2023-04-27T02:16:38.602Z,54.64
2023-04-27T02:17:38.561Z,55.25
2023-04-27T02:18:38.603Z,54.03
2023-04-27T02:19:38.500Z,53.13
2023-04-27T02:20:38.470Z,56.43
2023-04-27T02:21:38.473Z,58.91
2023-04-27T02:22:38.541Z,59.05
2023-04-27T02:23:38.512Z,59.07
2023-04-27T02:24:38.463Z,59.73
2023-04-27T02:25:38.468Z,56.80
2023-04-27T02:26:38.423Z,54.58
2023-04-27T02:27:38.420Z,55.79
2023-04-27T02:28:38.430Z,61.90
2023-04-27T02:29:38.462Z,63.99
2023-04-27T02:30:38.421Z,61.05
2023-04-27T02:31:38.469Z,57.43
2023-04-27T02:32:38.468Z,56.33
2023-04-27T02:33:38.434Z,58.17
2023-04-27T02:34:38.460Z,58.83
2023-04-27T02:35:38.490Z,61.44
2023-04-27T02:36:38.483Z,58.28
2023-04-27T02:37:38.466Z,60.85
2023-04-27T02:38:38.468Z,62.49
2023-04-27T02:39:38.516Z,60.68
2023-04-27T02:40:38.522Z,60.27
2023-04-27T02:41:38.496Z,57.75
2023-04-27T02:42:38.507Z,57.83
2023-04-27T02:43:38.513Z,60.84
2023-04-27T02:44:38.512Z,61.48
2023-04-27T02:45:38.533Z,61.85
2023-04-27T02:46:38.616Z,62.11
2023-04-27T02:47:38.581Z,61.21
2023-04-27T02:48:38.539Z,59.47
2023-04-27T02:49:38.592Z,60.92
2023-04-27T02:50:38.540Z,60.53
2023-04-27T02:51:38.573Z,55.25
2023-04-27T02:52:38.556Z,58.22
2023-04-27T02:53:38.569Z,58.45
2023-04-27T02:54:38.581Z,59.77
2023-04-27T02:55:38.595Z,57.11
2023-04-27T02:56:38.609Z,58.22
2023-04-27T02:57:38.606Z,57.71
2023-04-27T02:58:38.599Z,59.75
2023-04-27T02:59:38.616Z,58.77
2023-04-27T03:00:38.611Z,57.49
2023-04-27T03:01:38.755Z,58.90
2023-04-27T03:02:38.764Z,59.22
2023-04-27T03:03:38.736Z,58.30
2023-04-27T03:04:38.901Z,59.75
2023-04-27T03:05:38.640Z,58.22
2023-04-27T03:06:38.654Z,56.91
2023-04-27T03:07:38.662Z,58.83
2023-04-27T03:08:38.662Z,58.48
2023-04-27T03:09:38.664Z,57.31
2023-04-27T03:10:38.681Z,60.70
2023-04-27T03:11:38.689Z,60.24
2023-04-27T03:12:38.686Z,59.02
2023-04-27T03:13:38.672Z,58.86
2023-04-27T03:14:38.681Z,58.37
2023-04-27T03:15:38.701Z,57.47
2023-04-27T03:16:38.710Z,55.29
2023-04-27T03:17:38.758Z,57.12
2023-04-27T03:18:38.720Z,59.18
2023-04-27T03:19:38.717Z,57.79
2023-04-27T03:20:38.737Z,56.90
2023-04-27T03:21:38.732Z,57.61
2023-04-27T03:22:38.736Z,58.39
2023-04-27T03:23:38.784Z,56.78
2023-04-27T03:24:38.744Z,58.36
2023-04-27T03:25:38.767Z,60.23
2023-04-27T03:26:38.766Z,61.15
2023-04-27T03:27:38.793Z,58.78
2023-04-27T03:28:38.791Z,57.72
2023-04-27T03:29:38.801Z,61.84
2023-04-27T03:30:38.796Z,62.75
2023-04-27T03:31:38.867Z,69.67
2023-04-27T03:32:38.844Z,72.06
2023-04-27T03:33:38.826Z,65.07
2023-04-27T03:34:38.832Z,62.10
2023-04-27T03:35:38.853Z,60.50
2023-04-27T03:36:38.849Z,58.37
2023-04-27T03:37:38.865Z,58.56
2023-04-27T03:38:38.871Z,61.43
2023-04-27T03:39:38.876Z,65.70
2023-04-27T03:40:38.896Z,69.34
2023-04-27T03:41:38.910Z,68.20
2023-04-27T03:42:38.898Z,64.30
2023-04-27T03:43:38.911Z,62.03
2023-04-27T03:44:38.942Z,58.63
2023-04-27T03:45:38.998Z,60.24
2023-04-27T03:46:38.943Z,63.75
2023-04-27T03:47:39.018Z,65.08
2023-04-27T03:48:38.961Z,67.19
2023-04-27T03:49:38.965Z,66.85
2023-04-27T03:50:38.997Z,65.92
2023-04-27T03:51:39.009Z,67.57
2023-04-27T03:52:39.033Z,66.23
2023-04-27T03:53:39.011Z,66.49
2023-04-27T03:54:39.067Z,67.84
2023-04-27T03:55:39.068Z,67.34
2023-04-27T03:56:39.063Z,67.93
2023-04-27T03:57:39.056Z,69.53
2023-04-27T03:58:39.076Z,69.98
2023-04-27T03:59:39.082Z,68.25
2023-04-27T04:00:39.089Z,67.37
2023-04-27T04:01:39.102Z,68.53
2023-04-27T04:02:39.214Z,66.27
2023-04-27T04:03:39.172Z,69.67
2023-04-27T04:04:39.380Z,70.95
2023-04-27T04:05:39.128Z,70.21
2023-04-27T04:06:39.156Z,66.96
2023-04-27T04:07:39.186Z,67.16
2023-04-27T04:08:39.168Z,65.89
2023-04-27T04:09:39.183Z,64.86
2023-04-27T04:10:39.207Z,66.30
2023-04-27T04:11:39.200Z,66.12
2023-04-27T04:12:39.211Z,64.77
2023-04-27T04:13:39.209Z,63.87
2023-04-27T04:14:39.289Z,63.95
2023-04-27T04:15:39.289Z,65.03
2023-04-27T04:16:39.224Z,64.99
2023-04-27T04:17:39.301Z,65.33
2023-04-27T04:18:39.264Z,64.91
2023-04-27T04:19:39.288Z,61.65
2023-04-27T04:20:39.289Z,64.52
2023-04-27T04:21:39.266Z,62.63
2023-04-27T04:22:39.278Z,61.29
2023-04-27T04:23:39.305Z,61.56
2023-04-27T04:24:39.379Z,61.21
2023-04-27T04:25:39.306Z,61.84
2023-04-27T04:26:39.323Z,61.24
2023-04-27T04:27:39.334Z,57.22
2023-04-27T04:28:39.324Z,55.71
2023-04-27T04:29:39.341Z,59.56
2023-04-27T04:30:39.341Z,55.95
2023-04-27T04:31:39.394Z,59.51
2023-04-27T04:32:39.400Z,60.17
2023-04-27T04:33:39.350Z,60.11
2023-04-27T04:34:39.405Z,59.89
2023-04-27T04:35:39.365Z,62.29
2023-04-27T04:36:39.371Z,62.59
2023-04-27T04:37:39.413Z,65.10
2023-04-27T04:38:39.390Z,65.84
2023-04-27T04:39:39.399Z,67.13
2023-04-27T04:40:39.425Z,69.30
2023-04-27T04:41:39.439Z,67.74
2023-04-27T04:42:39.453Z,69.11
2023-04-27T04:43:39.456Z,71.03
2023-04-27T04:44:39.510Z,71.51
2023-04-27T04:45:39.465Z,70.70
2023-04-27T04:46:39.519Z,71.70
2023-04-27T04:47:39.668Z,72.30
2023-04-27T04:48:39.479Z,73.88
2023-04-27T04:49:39.489Z,75.18
2023-04-27T04:50:39.521Z,76.87
2023-04-27T04:51:39.506Z,77.34
2023-04-27T04:52:39.518Z,82.22
2023-04-27T04:53:39.501Z,82.81
2023-04-27T04:54:39.540Z,83.94
2023-04-27T04:55:39.525Z,85.95
2023-04-27T04:56:39.525Z,91.47
2023-04-27T04:57:39.540Z,83.99
2023-04-27T04:58:39.542Z,82.60
2023-04-27T04:59:39.561Z,81.71
2023-04-27T05:00:39.572Z,85.74
2023-04-27T05:01:39.629Z,87.56
2023-04-27T05:02:39.685Z,87.76
2023-04-27T05:03:39.719Z,89.71
2023-04-27T05:04:39.661Z,86.92
2023-04-27T05:05:39.596Z,82.38
2023-04-27T05:06:39.612Z,81.66
2023-04-27T05:07:39.616Z,78.74
2023-04-27T05:08:39.614Z,78.69
2023-04-27T05:09:39.605Z,79.27
2023-04-27T05:10:39.625Z,80.42
2023-04-27T05:11:39.629Z,76.97
2023-04-27T05:12:39.636Z,78.34
2023-04-27T05:13:39.646Z,75.50
2023-04-27T05:14:39.662Z,75.62
2023-04-27T05:15:39.648Z,79.76
2023-04-27T05:16:39.721Z,82.49
2023-04-27T05:17:39.692Z,83.68
2023-04-27T05:18:39.696Z,83.00
2023-04-27T05:19:39.703Z,86.22
2023-04-27T05:20:39.697Z,87.37
2023-04-27T05:21:39.722Z,86.76
2023-04-27T05:22:39.730Z,86.39
2023-04-27T05:23:39.729Z,84.40
2023-04-27T05:24:39.756Z,84.28
2023-04-27T05:25:40.211Z,85.39
2023-04-27T05:26:39.779Z,86.09
2023-04-27T05:27:39.768Z,86.07
2023-04-27T05:28:39.793Z,82.73
2023-04-27T05:29:39.781Z,84.58
2023-04-27T05:30:39.808Z,87.32
2023-04-27T05:31:39.845Z,91.11
2023-04-27T05:32:39.824Z,95.40
2023-04-27T05:33:39.924Z,105.01
2023-04-27T05:34:39.813Z,111.70
2023-04-27T05:35:39.869Z,105.41
2023-04-27T05:36:39.855Z,91.66
2023-04-27T05:37:40.213Z,94.54
2023-04-27T05:38:39.901Z,95.67
2023-04-27T05:39:39.916Z,125.59
2023-04-27T05:40:40.176Z,158.71
2023-04-27T05:41:39.995Z,163.71
2023-04-27T05:42:40.207Z,170.76
2023-04-27T05:43:40.020Z,190.61
2023-04-27T05:44:40.023Z,184.32
2023-04-27T05:45:40.067Z,177.77
2023-04-27T05:46:40.098Z,194.80
2023-04-27T05:47:40.193Z,197.06
2023-04-27T05:48:40.163Z,209.69
2023-04-27T05:49:40.195Z,225.00
2023-04-27T05:50:40.187Z,236.38
2023-04-27T05:51:40.177Z,248.73
2023-04-27T05:52:40.224Z,255.65
2023-04-27T05:53:40.314Z,261.68
2023-04-27T05:54:40.334Z,280.21
2023-04-27T05:55:40.386Z,299.54
2023-04-27T05:56:40.517Z,311.80
2023-04-27T05:57:40.561Z,349.47
2023-04-27T05:58:40.499Z,375.86
2023-04-27T05:59:40.504Z,383.66
2023-04-27T06:00:40.554Z,378.42
2023-04-27T06:01:40.566Z,377.19
2023-04-27T06:02:40.646Z,372.58
2023-04-27T06:03:40.776Z,382.73
2023-04-27T06:04:40.565Z,396.67
2023-04-27T06:05:40.817Z,409.01
2023-04-27T06:06:40.521Z,432.70
2023-04-27T06:07:40.539Z,455.63
2023-04-27T06:08:40.568Z,474.45
2023-04-27T06:09:40.596Z,496.08
2023-04-27T06:10:40.634Z,492.91
2023-04-27T06:11:40.695Z,512.97
2023-04-27T06:12:41.196Z,562.85
2023-04-27T06:13:40.832Z,555.95
2023-04-27T06:14:40.842Z,530.55
2023-04-27T06:15:40.908Z,560.85
2023-04-27T06:16:40.900Z,589.91
2023-04-27T06:17:41.018Z,615.29
2023-04-27T06:18:40.992Z,643.49
2023-04-27T06:19:41.093Z,662.82
2023-04-27T06:20:41.089Z,676.42
2023-04-27T06:21:41.120Z,644.12
2023-04-27T06:22:41.184Z,577.88
2023-04-27T06:23:41.272Z,552.34
2023-04-27T06:24:41.328Z,544.61
2023-04-27T06:25:41.391Z,555.05
2023-04-27T06:26:41.435Z,614.56
2023-04-27T06:27:41.500Z,657.50
2023-04-27T06:28:41.558Z,670.20
2023-04-27T06:29:41.599Z,656.83
2023-04-27T06:30:41.705Z,647.04
2023-04-27T06:31:41.789Z,595.05
2023-04-27T06:32:41.841Z,577.26
2023-04-27T06:33:41.833Z,826.55
2023-04-27T06:34:41.938Z,697.95
2023-04-27T06:35:42.519Z,1000.00
2023-04-27T06:36:42.012Z,1000.00
2023-04-27T06:37:42.020Z,868.01
2023-04-27T06:38:42.086Z,674.91
2023-04-27T06:39:42.135Z,621.23
2023-04-27T06:40:42.220Z,595.16
2023-04-27T06:41:42.245Z,588.22
2023-04-27T06:42:42.704Z,612.24
2023-04-27T06:43:42.359Z,594.86
2023-04-27T06:44:42.408Z,530.09
2023-04-27T06:45:42.474Z,492.34
2023-04-27T06:46:42.692Z,548.84
2023-04-27T06:47:42.720Z,565.98
2023-04-27T06:48:42.676Z,531.14
2023-04-27T06:49:42.705Z,509.55
2023-04-27T06:50:42.753Z,536.65
2023-04-27T06:51:42.874Z,582.00
2023-04-27T06:52:42.864Z,580.13
2023-04-27T06:53:42.921Z,567.97
2023-04-27T06:54:42.980Z,565.01
2023-04-27T06:55:45.016Z,542.87
2023-04-27T06:56:42.990Z,542.59
2023-04-27T06:57:43.007Z,520.74
2023-04-27T06:58:42.982Z,501.97
2023-04-27T06:59:42.994Z,496.91
2023-04-27T07:00:43.224Z,501.09
2023-04-27T07:01:43.026Z,489.68
2023-04-27T07:02:43.054Z,467.00
2023-04-27T07:03:43.168Z,441.00
2023-04-27T07:04:42.991Z,410.03
2023-04-27T07:05:42.969Z,341.14
2023-04-27T07:06:42.951Z,349.99
2023-04-27T07:07:42.951Z,327.72
2023-04-27T07:08:43.251Z,301.77
2023-04-27T07:09:42.930Z,320.15
2023-04-27T07:10:42.919Z,358.76
2023-04-27T07:11:42.916Z,366.82
2023-04-27T07:12:42.906Z,375.44
2023-04-27T07:13:42.900Z,320.23
2023-04-27T07:14:42.888Z,312.87
2023-04-27T07:15:42.913Z,275.29
2023-04-27T07:16:42.863Z,299.58
2023-04-27T07:17:42.923Z,282.95
2023-04-27T07:18:43.672Z,278.88
2023-04-27T07:19:42.854Z,274.15
2023-04-27T07:20:42.850Z,247.55
2023-04-27T07:21:42.841Z,250.66
2023-04-27T07:22:42.841Z,234.53
2023-04-27T07:23:43.262Z,221.57
2023-04-27T07:24:42.844Z,206.95
2023-04-27T07:25:42.869Z,208.52
2023-04-27T07:26:42.792Z,206.13
2023-04-27T07:27:42.800Z,214.24
2023-04-27T07:28:43.235Z,213.82
2023-04-27T07:29:42.764Z,222.66
2023-04-27T07:30:42.783Z,225.35
2023-04-27T07:31:42.793Z,227.97
2023-04-27T07:32:42.792Z,232.15
2023-04-27T07:33:42.759Z,225.72
2023-04-27T07:34:52.696Z,227.85
2023-04-27T07:35:43.754Z,228.01
2023-04-27T07:36:42.722Z,227.91
2023-04-27T07:37:42.730Z,216.62
2023-04-27T07:38:42.725Z,213.53
2023-04-27T07:39:42.715Z,205.85
2023-04-27T07:40:44.372Z,200.64
2023-04-27T07:41:42.693Z,195.02
2023-04-27T07:42:42.700Z,181.46
2023-04-27T07:43:42.678Z,171.40
2023-04-27T07:44:42.723Z,174.58
2023-04-27T07:45:42.762Z,173.97
2023-04-27T07:46:42.665Z,178.92
2023-04-27T07:47:42.720Z,180.21
2023-04-27T07:48:42.674Z,176.74
2023-04-27T07:49:42.712Z,178.49
2023-04-27T07:50:42.775Z,179.42
2023-04-27T07:51:42.813Z,188.97
2023-04-27T07:52:42.842Z,198.78
2023-04-27T07:53:42.875Z,199.88
2023-04-27T07:54:42.941Z,201.60
2023-04-27T07:55:42.993Z,196.89
2023-04-27T07:56:43.024Z,194.80
2023-04-27T07:57:43.054Z,190.43
2023-04-27T07:58:43.081Z,183.16
2023-04-27T07:59:43.136Z,180.77
2023-04-27T08:00:43.175Z,176.47
2023-04-27T08:01:43.258Z,169.31
2023-04-27T08:02:43.468Z,166.29
2023-04-27T08:03:43.433Z,162.53
2023-04-27T08:04:43.794Z,157.95
2023-04-27T08:05:43.850Z,154.08
2023-04-27T08:06:43.688Z,148.36
2023-04-27T08:07:44.781Z,146.41
2023-04-27T08:08:43.755Z,142.69
2023-04-27T08:09:43.579Z,139.45
2023-04-27T08:10:43.675Z,135.47
2023-04-27T08:11:43.686Z,134.07
2023-04-27T08:12:43.714Z,129.57
2023-04-27T08:13:43.776Z,126.29
2023-04-27T08:14:43.814Z,126.42
2023-04-27T08:15:43.869Z,122.04
2023-04-27T08:16:43.973Z,119.23
2023-04-27T08:17:44.011Z,116.42
2023-04-27T08:18:44.019Z,112.83
2023-04-27T08:19:44.060Z,110.55
2023-04-27T08:20:44.083Z,60.37
2023-04-27T08:21:44.106Z,20.75
2023-04-27T08:22:44.111Z,14.73
2023-04-27T08:23:44.097Z,14.57
2023-04-27T08:24:44.109Z,12.57
2023-04-27T08:25:44.100Z,10.53
2023-04-27T08:26:44.089Z,9.98
2023-04-27T08:27:44.083Z,11.73
2023-04-27T08:28:44.135Z,13.46
2023-04-27T08:29:44.146Z,15.00
2023-04-27T08:30:44.058Z,14.25
2023-04-27T08:31:44.169Z,14.05
2023-04-27T08:32:44.041Z,20.34
2023-04-27T08:33:44.057Z,22.77
2023-04-27T08:34:44.085Z,20.62
2023-04-27T08:35:44.105Z,18.69
2023-04-27T08:36:44.131Z,23.42
2023-04-27T08:37:44.150Z,25.87
2023-04-27T08:38:44.179Z,27.04
2023-04-27T08:39:44.188Z,31.33
2023-04-27T08:40:44.185Z,37.11
2023-04-27T08:41:44.275Z,43.91
2023-04-27T08:42:44.167Z,53.56
2023-04-27T08:43:44.181Z,61.38
2023-04-27T08:44:44.242Z,66.47
2023-04-27T08:45:44.250Z,72.85
2023-04-27T08:46:44.831Z,80.72
2023-04-27T08:47:44.306Z,69.10
2023-04-27T08:48:44.344Z,72.28
2023-04-27T08:49:44.390Z,78.67
2023-04-27T08:50:44.450Z,76.76
2023-04-27T08:51:44.513Z,82.70
2023-04-27T08:52:44.589Z,82.35
2023-04-27T08:53:44.789Z,74.90
2023-04-27T08:54:44.713Z,69.57
2023-04-27T08:55:44.752Z,79.74
2023-04-27T08:56:44.827Z,89.08
2023-04-27T08:57:44.856Z,95.37
2023-04-27T08:58:45.263Z,118.12
2023-04-27T08:59:44.930Z,119.92
2023-04-27T09:00:44.982Z,135.24
2023-04-27T09:01:45.122Z,135.67
2023-04-27T09:02:45.180Z,133.50
2023-04-27T09:03:45.269Z,127.90
2023-04-27T09:04:45.355Z,134.56
2023-04-27T09:05:56.398Z,149.24
2023-04-27T09:06:46.175Z,91.01
2023-04-27T09:07:45.138Z,152.44
2023-04-27T09:08:45.155Z,98.24
2023-04-27T09:09:45.152Z,155.25
2023-04-27T09:10:45.138Z,71.87
2023-04-27T09:11:45.127Z,76.65
2023-04-27T09:12:45.092Z,63.78
2023-04-27T09:13:45.142Z,75.22
2023-04-27T09:14:45.121Z,30.65
2023-04-27T09:15:46.475Z,19.12
2023-04-27T09:16:45.215Z,17.04
2023-04-27T09:17:45.109Z,14.82
2023-04-27T09:18:45.072Z,16.41
2023-04-27T09:19:45.078Z,11.08
2023-04-27T09:20:45.043Z,8.93
2023-04-27T09:21:46.668Z,7.78
2023-04-27T09:22:45.032Z,6.70
2023-04-27T09:23:45.027Z,7.79
2023-04-27T09:24:45.020Z,7.70
2023-04-27T09:25:45.017Z,7.82
2023-04-27T09:26:45.004Z,8.59
2023-04-27T09:27:44.993Z,8.97
2023-04-27T09:28:45.290Z,5.11
2023-04-27T09:29:44.991Z,2.94
2023-04-27T09:30:44.968Z,1.30
2023-04-27T09:31:45.336Z,1.11
2023-04-27T09:32:45.007Z,1.35
2023-04-27T09:33:44.941Z,1.97
2023-04-27T09:34:44.947Z,2.29
2023-04-27T09:35:44.921Z,2.66
2023-04-27T09:36:44.934Z,3.75
2023-04-27T09:37:44.912Z,5.23
2023-04-27T09:38:44.917Z,7.60
2023-04-27T09:39:44.915Z,8.68
2023-04-27T09:40:44.913Z,9.51
2023-04-27T09:41:44.909Z,10.51
2023-04-27T09:42:44.890Z,10.44
2023-04-27T09:43:44.879Z,12.39
2023-04-27T09:44:44.888Z,14.76
2023-04-27T09:45:44.949Z,14.82
2023-04-27T09:46:44.860Z,16.38
2023-04-27T09:47:44.870Z,17.79
2023-04-27T09:48:44.852Z,19.87
2023-04-27T09:49:45.296Z,24.52
2023-04-27T09:50:44.839Z,30.33
2023-04-27T09:51:45.282Z,39.92
2023-04-27T09:52:44.822Z,46.83
2023-04-27T09:53:44.798Z,52.02
2023-04-27T09:54:44.811Z,63.80
2023-04-27T09:55:44.801Z,75.64
2023-04-27T09:56:44.798Z,84.02
2023-04-27T09:57:44.783Z,82.42
2023-04-27T09:58:44.763Z,77.19
2023-04-27T09:59:44.808Z,171.60
2023-04-27T10:00:44.783Z,156.94
2023-04-27T10:01:44.943Z,158.06
2023-04-27T10:02:53.082Z,143.85
2023-04-27T10:03:45.841Z,144.05
2023-04-27T10:04:44.769Z,139.06
2023-04-27T10:05:44.711Z,137.84
2023-04-27T10:06:44.729Z,140.40
2023-04-27T10:07:44.695Z,138.82
2023-04-27T10:08:44.697Z,140.43
2023-04-27T10:09:44.692Z,116.58
2023-04-27T10:10:44.690Z,126.66
2023-04-27T10:11:44.680Z,132.11
2023-04-27T10:12:44.676Z,130.61
2023-04-27T10:13:44.667Z,135.60
2023-04-27T10:14:44.650Z,137.48
2023-04-27T10:15:44.650Z,128.08
2023-04-27T10:16:44.648Z,132.92
2023-04-27T10:17:44.708Z,134.54
2023-04-27T10:18:44.624Z,132.13
2023-04-27T10:19:44.633Z,172.66
2023-04-27T10:20:44.613Z,157.70
2023-04-27T10:21:44.612Z,151.11
2023-04-27T10:22:44.595Z,131.76
2023-04-27T10:23:44.605Z,133.86
2023-04-27T10:24:44.585Z,121.96
2023-04-27T10:25:44.583Z,126.65
2023-04-27T10:26:44.575Z,116.32
2023-04-27T10:27:44.559Z,121.76
2023-04-27T10:28:44.562Z,144.29
2023-04-27T10:29:44.548Z,153.63
2023-04-27T10:30:44.608Z,139.11
2023-04-27T10:31:44.805Z,126.81
2023-04-27T10:32:44.568Z,126.95
2023-04-27T10:33:44.531Z,118.69
2023-04-27T10:34:44.528Z,163.97
2023-04-27T10:35:44.532Z,160.04
2023-04-27T10:36:44.496Z,135.34
2023-04-27T10:37:44.487Z,113.62
2023-04-27T10:38:44.495Z,121.18
2023-04-27T10:39:49.410Z,142.95
2023-04-27T10:40:45.510Z,121.64
2023-04-27T10:41:44.524Z,116.75
2023-04-27T10:42:44.475Z,108.86
2023-04-27T10:43:44.470Z,146.44
2023-04-27T10:44:44.486Z,187.87
2023-04-27T10:45:44.475Z,168.62
2023-04-27T10:46:44.466Z,182.18
2023-04-27T10:47:44.487Z,203.43
2023-04-27T10:48:44.441Z,217.48
2023-04-27T10:49:44.438Z,220.53
2023-04-27T10:50:44.446Z,237.62
2023-04-27T10:51:44.831Z,186.74
2023-04-27T10:52:44.446Z,187.49
2023-04-27T10:53:44.401Z,199.97
2023-04-27T10:54:44.831Z,206.36
2023-04-27T10:55:44.398Z,184.82
2023-04-27T10:56:44.814Z,161.82
2023-04-27T10:57:44.375Z,169.84
2023-04-27T10:58:49.025Z,174.42
2023-04-27T10:59:45.379Z,162.58
2023-04-27T11:00:44.638Z,169.83
2023-04-27T11:01:44.386Z,161.89
2023-04-27T11:02:44.396Z,159.54
2023-04-27T11:03:44.411Z,187.99
2023-04-27T11:04:44.344Z,175.02
2023-04-27T11:05:44.328Z,210.46
2023-04-27T11:06:44.325Z,156.01
2023-04-27T11:07:44.316Z,174.10
2023-04-27T11:08:44.311Z,138.56
2023-04-27T11:09:44.304Z,159.32
2023-04-27T11:10:44.299Z,189.23
2023-04-27T11:11:44.338Z,174.37
2023-04-27T11:12:44.321Z,146.92
2023-04-27T11:13:44.272Z,154.86
2023-04-27T11:14:44.290Z,152.69
2023-04-27T11:15:44.325Z,122.77
2023-04-27T11:16:44.414Z,126.93
2023-04-27T11:17:44.300Z,114.98
2023-04-27T11:18:44.248Z,124.34
2023-04-27T11:19:44.214Z,135.87
2023-04-27T11:20:44.250Z,149.63
2023-04-27T11:21:44.354Z,163.56
2023-04-27T11:22:44.212Z,180.87
2023-04-27T11:23:44.209Z,181.92
2023-04-27T11:24:44.185Z,183.35
2023-04-27T11:25:44.173Z,185.34
2023-04-27T11:26:44.185Z,188.64
2023-04-27T11:27:44.170Z,179.55
2023-04-27T11:28:44.175Z,160.99
2023-04-27T11:29:44.151Z,157.06
2023-04-27T11:30:44.141Z,145.52
2023-04-27T11:31:44.160Z,130.05
2023-04-27T11:32:44.170Z,118.30
2023-04-27T11:33:44.132Z,121.22
2023-04-27T11:34:44.118Z,135.54
2023-04-27T11:35:44.110Z,134.91
2023-04-27T11:36:44.129Z,132.18
2023-04-27T11:37:44.133Z,123.04
2023-04-27T11:38:44.164Z,108.04
2023-04-27T11:39:44.117Z,112.33
2023-04-27T11:40:44.107Z,91.84
2023-04-27T11:41:44.139Z,87.74
2023-04-27T11:42:44.129Z,87.51
2023-04-27T11:43:44.179Z,83.88
2023-04-27T11:44:44.160Z,82.06
2023-04-27T11:45:44.181Z,75.39
2023-04-27T11:46:44.219Z,70.37
2023-04-27T11:47:44.193Z,69.45
2023-04-27T11:48:44.203Z,63.04
2023-04-27T11:49:44.232Z,55.81
2023-04-27T11:50:44.237Z,48.50
2023-04-27T11:51:44.249Z,42.64
2023-04-27T11:52:44.255Z,42.20
2023-04-27T11:53:44.272Z,35.37
2023-04-27T11:54:44.276Z,26.64
2023-04-27T11:55:44.298Z,23.56
2023-04-27T11:56:44.310Z,21.45
2023-04-27T11:57:44.345Z,20.24
2023-04-27T11:58:46.129Z,22.68
2023-04-27T11:59:44.349Z,25.28
2023-04-27T12:00:44.362Z,23.53
2023-04-27T12:01:44.421Z,21.44
2023-04-27T12:02:44.762Z,22.59
2023-04-27T12:03:44.561Z,22.23
2023-04-27T12:04:44.506Z,22.00
2023-04-27T12:05:44.506Z,21.92
2023-04-27T12:06:44.464Z,21.92
2023-04-27T12:07:44.483Z,22.69
2023-04-27T12:08:44.492Z,23.35
2023-04-27T12:09:44.529Z,24.26
2023-04-27T12:10:44.521Z,23.81
2023-04-27T12:11:44.542Z,24.17
2023-04-27T12:12:44.570Z,23.70
2023-04-27T12:13:44.606Z,23.12
2023-04-27T12:14:44.616Z,19.19
2023-04-27T12:15:44.653Z,15.21
2023-04-27T12:16:44.719Z,16.22
2023-04-27T12:17:44.710Z,19.72
2023-04-27T12:18:44.727Z,19.89
2023-04-27T12:19:44.705Z,24.46
2023-04-27T12:20:44.741Z,30.95
2023-04-27T12:21:44.766Z,23.85
2023-04-27T12:22:44.812Z,18.46
2023-04-27T12:23:44.830Z,18.84
2023-04-27T12:24:44.833Z,18.15
2023-04-27T12:25:44.904Z,21.04
2023-04-27T12:26:44.913Z,27.42
2023-04-27T12:27:44.941Z,25.77
2023-04-27T12:28:44.966Z,28.49
2023-04-27T12:29:45.018Z,28.69
2023-04-27T12:30:45.057Z,23.86
2023-04-27T12:31:45.091Z,25.83
2023-04-27T12:32:45.131Z,26.56
2023-04-27T12:33:45.114Z,29.26
2023-04-27T12:34:45.384Z,31.17
2023-04-27T12:35:45.174Z,32.46
2023-04-27T12:36:45.181Z,33.66
2023-04-27T12:37:45.196Z,34.36
2023-04-27T12:38:45.196Z,34.39
2023-04-27T12:39:45.226Z,34.84
2023-04-27T12:40:45.281Z,35.21
2023-04-27T12:41:45.274Z,34.61
2023-04-27T12:42:45.272Z,33.24
2023-04-27T12:43:45.290Z,32.46
2023-04-27T12:44:45.329Z,31.29